Terminal Aerodrome Forecast
Issued by NWS

Home | Current Version | Previous Version | Text Only | Print | Product List | Glossary On
Versions: 1 2 3 4 5 6 7 8 9 10 11 12 13 14 15 16 17
255
FTPA31 PHFO 231940 AAA
TAFHKO
TAF AMD
PHKO 231940Z 2320/2418 36015KT P6SM VCSH SCT015 BKN035 OVC045
      TEMPO 2320/2324 36020G28KT
     FM240600 19014KT P6SM -SHRA SCT025 BKN045=

USA.gov is the U.S. government's official web portal to all federal, state and local government web resources and services.